< Cyclone 201809 2018 Season Cyclone 201820 >
Cyclone 201817 (Kelvin)
General InformationTrack Information on Google MapsDetailed Wind InformationList of All Images || ResourceGoogle EarthGE AnimationAtom FeedGeoJSON
Detalied Best Track (Time Zone = UTC)
Year Month Day Hour Lat. Long. Pressure (hPa) Wind (kt) Class Image Chart
2018 2 12 18 -9.9 132.5 1006 15 2 Image --
2018 2 13 00 -10.5 132.8 1006 15 2 Image --
2018 2 13 06 -11.0 133.5 1004 15 2 Image --
2018 2 13 12 -12.3 132.3 1004 20 2 Image --
2018 2 13 18 -13.1 131.3 1004 20 2 Image --
2018 2 14 00 -13.6 130.3 1004 25 2 Image --
2018 2 14 06 -14.0 128.9 1003 30 2 Image --
2018 2 14 12 -14.5 128.2 1001 30 2 Image --
2018 2 14 18 -14.6 126.9 1001 25 2 Image --
2018 2 15 00 -15.1 126.1 1002 25 2 Image --
2018 2 15 06 -16.0 125.6 1002 25 2 Image --
2018 2 15 12 -16.8 124.4 1003 25 2 Image --
2018 2 15 18 -17.1 122.9 1003 25 2 Image --
2018 2 16 00 -17.2 122.2 998 35 3 Image --
2018 2 16 06 -17.7 121.6 991 40 3 Image --
2018 2 16 12 -18.1 121.3 989 40 3 Image --
2018 2 16 18 -18.4 121.2 989 40 3 Image --
2018 2 17 00 -18.8 120.9 986 45 3 Image --
2018 2 17 06 -19.2 120.6 983 50 4 Image --
2018 2 17 12 -19.0 120.6 974 60 4 Image --
2018 2 17 18 -19.0 121.0 966 70 5 Image --
2018 2 18 00 -19.1 121.6 959 80 5 Image --
2018 2 18 06 -19.7 122.1 955 80 5 Image --
2018 2 18 12 -20.2 122.4 965 70 5 Image --
2018 2 18 18 -20.9 122.6 973 60 4 Image --
2018 2 19 00 -21.4 122.9 984 40 3 Image --
2018 2 19 06 -22.0 123.3 987 35 3 Image --
2018 2 19 12 -22.5 123.6 990 30 2 Image --
2018 2 19 18 -23.0 123.8 996 25 2 Image --
2018 2 20 00 -23.7 124.0 997 20 2 Image --
2018 2 20 06 -24.3 124.4 997 20 2 Image --
2018 2 20 12 -24.9 124.8 997 20 2 Image --
2018 2 20 18 -26.0 124.9 997 20 2 Image --
2018 2 21 00 -27.0 125.1 998 20 2 Image --
2018 2 21 06 -28.3 126.1 1000 20 2 Image --
< Cyclone 201809 2018 Season Cyclone 201820 >

Help